sensor_id;sensor_type;location;lat;lon;timestamp;P1;durP1;ratioP1;P2;durP2;ratioP2
4921;SDS011;16625;53.624;10.106;2023-08-20T00:00:41;10.77;;;7.10;;
4921;SDS011;16625;53.624;10.106;2023-08-20T00:03:10;31.80;;;7.70;;
4921;SDS011;16625;53.624;10.106;2023-08-20T00:05:38;18.30;;;8.00;;
4921;SDS011;16625;53.624;10.106;2023-08-20T00:08:06;14.63;;;7.30;;
4921;SDS011;16625;53.624;10.106;2023-08-20T00:10:34;16.53;;;7.30;;
4921;SDS011;16625;53.624;10.106;2023-08-20T00:13:01;11.00;;;6.70;;
4921;SDS011;16625;53.624;10.106;2023-08-20T00:15:29;17.80;;;7.50;;
4921;SDS011;16625;53.624;10.106;2023-08-20T00:17:56;16.20;;;6.83;;
4921;SDS011;16625;53.624;10.106;2023-08-20T00:20:24;28.97;;;6.93;;
4921;SDS011;16625;53.624;10.106;2023-08-20T00:22:51;15.27;;;6.90;;
4921;SDS011;16625;53.624;10.106;2023-08-20T00:25:19;16.07;;;7.60;;
4921;SDS011;16625;53.624;10.106;2023-08-20T00:27:47;17.57;;;7.23;;
4921;SDS011;16625;53.624;10.106;2023-08-20T00:30:15;14.07;;;5.70;;
4921;SDS011;16625;53.624;10.106;2023-08-20T00:32:43;22.30;;;7.97;;
4921;SDS011;16625;53.624;10.106;2023-08-20T00:35:12;21.70;;;7.10;;
4921;SDS011;16625;53.624;10.106;2023-08-20T00:37:40;13.03;;;6.50;;
4921;SDS011;16625;53.624;10.106;2023-08-20T00:40:10;13.30;;;7.60;;
4921;SDS011;16625;53.624;10.106;2023-08-20T00:42:37;14.30;;;6.77;;
4921;SDS011;16625;53.624;10.106;2023-08-20T00:45:06;17.27;;;7.60;;
4921;SDS011;16625;53.624;10.106;2023-08-20T00:47:34;15.73;;;8.77;;
4921;SDS011;16625;53.624;10.106;2023-08-20T00:50:01;16.73;;;6.37;;
4921;SDS011;16625;53.624;10.106;2023-08-20T00:52:32;19.87;;;7.00;;
4921;SDS011;16625;53.624;10.106;2023-08-20T00:54:59;20.50;;;7.40;;
4921;SDS011;16625;53.624;10.106;2023-08-20T00:57:32;16.33;;;8.10;;
4921;SDS011;16625;53.624;10.106;2023-08-20T00:59:59;18.00;;;6.93;;
4921;SDS011;16625;53.624;10.106;2023-08-20T01:02:30;21.67;;;7.90;;
4921;SDS011;16625;53.624;10.106;2023-08-20T01:04:58;13.63;;;7.77;;
4921;SDS011;16625;53.624;10.106;2023-08-20T01:07:27;12.27;;;7.03;;
4921;SDS011;16625;53.624;10.106;2023-08-20T01:10:08;14.10;;;8.10;;
4921;SDS011;16625;53.624;10.106;2023-08-20T01:12:40;15.93;;;7.53;;
4921;SDS011;16625;53.624;10.106;2023-08-20T01:15:08;15.87;;;8.17;;
4921;SDS011;16625;53.624;10.106;2023-08-20T01:17:40;19.70;;;7.97;;
4921;SDS011;16625;53.624;10.106;2023-08-20T01:20:07;17.57;;;7.90;;
4921;SDS011;16625;53.624;10.106;2023-08-20T01:22:41;14.47;;;7.53;;
4921;SDS011;16625;53.624;10.106;2023-08-20T01:25:24;18.37;;;7.97;;
4921;SDS011;16625;53.624;10.106;2023-08-20T01:28:01;20.97;;;6.97;;
4921;SDS011;16625;53.624;10.106;2023-08-20T01:30:43;22.07;;;8.30;;
4921;SDS011;16625;53.624;10.106;2023-08-20T01:33:12;22.90;;;8.40;;
4921;SDS011;16625;53.624;10.106;2023-08-20T01:35:41;18.53;;;8.97;;
4921;SDS011;16625;53.624;10.106;2023-08-20T01:38:08;16.60;;;7.27;;
4921;SDS011;16625;53.624;10.106;2023-08-20T01:40:35;13.43;;;7.60;;
4921;SDS011;16625;53.624;10.106;2023-08-20T01:43:02;15.93;;;6.97;;
4921;SDS011;16625;53.624;10.106;2023-08-20T01:45:31;12.50;;;7.60;;
4921;SDS011;16625;53.624;10.106;2023-08-20T01:47:58;13.33;;;7.80;;
4921;SDS011;16625;53.624;10.106;2023-08-20T01:50:25;21.00;;;8.07;;
4921;SDS011;16625;53.624;10.106;2023-08-20T01:52:53;18.73;;;9.10;;
4921;SDS011;16625;53.624;10.106;2023-08-20T01:55:20;15.40;;;8.17;;
4921;SDS011;16625;53.624;10.106;2023-08-20T01:57:47;30.73;;;8.87;;
4921;SDS011;16625;53.624;10.106;2023-08-20T02:00:14;23.50;;;9.10;;
4921;SDS011;16625;53.624;10.106;2023-08-20T02:02:43;21.60;;;8.33;;
4921;SDS011;16625;53.624;10.106;2023-08-20T02:05:11;17.27;;;7.33;;
4921;SDS011;16625;53.624;10.106;2023-08-20T02:07:38;16.27;;;7.40;;
4921;SDS011;16625;53.624;10.106;2023-08-20T02:10:06;19.30;;;8.13;;
4921;SDS011;16625;53.624;10.106;2023-08-20T02:12:34;14.57;;;7.37;;
4921;SDS011;16625;53.624;10.106;2023-08-20T02:15:01;13.57;;;7.27;;
4921;SDS011;16625;53.624;10.106;2023-08-20T02:17:28;10.97;;;6.80;;
4921;SDS011;16625;53.624;10.106;2023-08-20T02:19:57;12.77;;;6.83;;
4921;SDS011;16625;53.624;10.106;2023-08-20T02:22:24;12.57;;;7.47;;
4921;SDS011;16625;53.624;10.106;2023-08-20T02:24:54;15.13;;;7.60;;
4921;SDS011;16625;53.624;10.106;2023-08-20T02:27:21;16.93;;;7.53;;
4921;SDS011;16625;53.624;10.106;2023-08-20T02:29:48;17.97;;;7.63;;
4921;SDS011;16625;53.624;10.106;2023-08-20T02:32:16;17.20;;;7.70;;
4921;SDS011;16625;53.624;10.106;2023-08-20T02:34:44;21.40;;;7.50;;
4921;SDS011;16625;53.624;10.106;2023-08-20T02:37:15;14.63;;;8.50;;
4921;SDS011;16625;53.624;10.106;2023-08-20T02:39:43;17.83;;;8.73;;
4921;SDS011;16625;53.624;10.106;2023-08-20T02:42:09;19.13;;;9.27;;
4921;SDS011;16625;53.624;10.106;2023-08-20T02:44:36;18.60;;;8.13;;
4921;SDS011;16625;53.624;10.106;2023-08-20T02:47:03;12.40;;;8.33;;
4921;SDS011;16625;53.624;10.106;2023-08-20T02:49:30;15.23;;;7.53;;
4921;SDS011;16625;53.624;10.106;2023-08-20T02:51:59;23.97;;;7.43;;
4921;SDS011;16625;53.624;10.106;2023-08-20T02:54:29;20.67;;;8.87;;
4921;SDS011;16625;53.624;10.106;2023-08-20T02:56:57;14.43;;;8.83;;
4921;SDS011;16625;53.624;10.106;2023-08-20T02:59:24;16.27;;;8.30;;
4921;SDS011;16625;53.624;10.106;2023-08-20T03:01:52;16.73;;;9.10;;
4921;SDS011;16625;53.624;10.106;2023-08-20T03:04:21;16.40;;;7.70;;
4921;SDS011;16625;53.624;10.106;2023-08-20T03:06:48;21.43;;;9.50;;
4921;SDS011;16625;53.624;10.106;2023-08-20T03:09:15;27.53;;;8.23;;
4921;SDS011;16625;53.624;10.106;2023-08-20T03:11:44;24.33;;;8.17;;
4921;SDS011;16625;53.624;10.106;2023-08-20T03:14:11;19.50;;;8.67;;
4921;SDS011;16625;53.624;10.106;2023-08-20T03:16:38;26.80;;;12.57;;
4921;SDS011;16625;53.624;10.106;2023-08-20T03:19:05;19.23;;;10.90;;
4921;SDS011;16625;53.624;10.106;2023-08-20T03:21:33;18.00;;;10.00;;
4921;SDS011;16625;53.624;10.106;2023-08-20T03:24:00;17.37;;;8.70;;
4921;SDS011;16625;53.624;10.106;2023-08-20T03:26:27;25.90;;;11.20;;
4921;SDS011;16625;53.624;10.106;2023-08-20T03:28:55;14.53;;;8.27;;
4921;SDS011;16625;53.624;10.106;2023-08-20T03:31:23;18.70;;;9.40;;
4921;SDS011;16625;53.624;10.106;2023-08-20T03:33:51;16.73;;;9.67;;
4921;SDS011;16625;53.624;10.106;2023-08-20T03:36:18;23.80;;;7.63;;
4921;SDS011;16625;53.624;10.106;2023-08-20T03:38:45;23.63;;;8.97;;
4921;SDS011;16625;53.624;10.106;2023-08-20T03:41:12;19.17;;;7.30;;
4921;SDS011;16625;53.624;10.106;2023-08-20T03:43:40;20.60;;;9.50;;
4921;SDS011;16625;53.624;10.106;2023-08-20T03:46:08;13.43;;;7.93;;
4921;SDS011;16625;53.624;10.106;2023-08-20T03:48:35;19.27;;;7.50;;
4921;SDS011;16625;53.624;10.106;2023-08-20T03:51:02;13.73;;;6.87;;
4921;SDS011;16625;53.624;10.106;2023-08-20T03:53:30;15.60;;;8.17;;
4921;SDS011;16625;53.624;10.106;2023-08-20T03:55:57;17.53;;;7.43;;
4921;SDS011;16625;53.624;10.106;2023-08-20T03:58:24;17.80;;;8.33;;
4921;SDS011;16625;53.624;10.106;2023-08-20T04:00:51;12.93;;;7.90;;
4921;SDS011;16625;53.624;10.106;2023-08-20T04:03:19;21.63;;;9.07;;
4921;SDS011;16625;53.624;10.106;2023-08-20T04:05:46;11.03;;;7.20;;
4921;SDS011;16625;53.624;10.106;2023-08-20T04:08:16;21.50;;;8.60;;
4921;SDS011;16625;53.624;10.106;2023-08-20T04:10:44;14.50;;;8.87;;
4921;SDS011;16625;53.624;10.106;2023-08-20T04:13:11;14.80;;;8.07;;
4921;SDS011;16625;53.624;10.106;2023-08-20T04:15:41;22.73;;;7.33;;
4921;SDS011;16625;53.624;10.106;2023-08-20T04:18:08;14.03;;;7.33;;
4921;SDS011;16625;53.624;10.106;2023-08-20T04:20:37;15.03;;;7.40;;
4921;SDS011;16625;53.624;10.106;2023-08-20T04:23:03;17.50;;;8.10;;
4921;SDS011;16625;53.624;10.106;2023-08-20T04:25:31;17.60;;;7.40;;
4921;SDS011;16625;53.624;10.106;2023-08-20T04:27:58;13.03;;;6.90;;
4921;SDS011;16625;53.624;10.106;2023-08-20T04:30:25;14.53;;;7.30;;
4921;SDS011;16625;53.624;10.106;2023-08-20T04:32:52;11.27;;;7.50;;
4921;SDS011;16625;53.624;10.106;2023-08-20T04:35:20;17.60;;;7.33;;
4921;SDS011;16625;53.624;10.106;2023-08-20T04:37:51;13.97;;;7.60;;
4921;SDS011;16625;53.624;10.106;2023-08-20T04:40:18;15.70;;;7.50;;
4921;SDS011;16625;53.624;10.106;2023-08-20T04:42:47;10.87;;;6.90;;
4921;SDS011;16625;53.624;10.106;2023-08-20T04:45:15;15.53;;;7.23;;
4921;SDS011;16625;53.624;10.106;2023-08-20T04:47:44;14.10;;;6.83;;
4921;SDS011;16625;53.624;10.106;2023-08-20T04:50:12;16.70;;;8.20;;
4921;SDS011;16625;53.624;10.106;2023-08-20T04:52:39;14.97;;;6.90;;
4921;SDS011;16625;53.624;10.106;2023-08-20T04:55:10;14.57;;;8.00;;
4921;SDS011;16625;53.624;10.106;2023-08-20T04:57:37;16.27;;;7.77;;
4921;SDS011;16625;53.624;10.106;2023-08-20T05:00:08;24.57;;;9.47;;
4921;SDS011;16625;53.624;10.106;2023-08-20T05:02:40;24.43;;;9.93;;
4921;SDS011;16625;53.624;10.106;2023-08-20T05:05:08;14.20;;;7.97;;
4921;SDS011;16625;53.624;10.106;2023-08-20T05:07:36;15.60;;;8.13;;
4921;SDS011;16625;53.624;10.106;2023-08-20T05:10:04;20.87;;;9.03;;
4921;SDS011;16625;53.624;10.106;2023-08-20T05:12:36;28.17;;;10.80;;
4921;SDS011;16625;53.624;10.106;2023-08-20T05:15:04;42.50;;;16.53;;
4921;SDS011;16625;53.624;10.106;2023-08-20T05:17:31;43.80;;;14.43;;
4921;SDS011;16625;53.624;10.106;2023-08-20T05:19:59;57.63;;;14.40;;
4921;SDS011;16625;53.624;10.106;2023-08-20T05:22:27;51.10;;;15.83;;
4921;SDS011;16625;53.624;10.106;2023-08-20T05:24:54;52.50;;;14.70;;
4921;SDS011;16625;53.624;10.106;2023-08-20T05:27:20;46.77;;;14.40;;
4921;SDS011;16625;53.624;10.106;2023-08-20T05:29:50;40.93;;;15.83;;
4921;SDS011;16625;53.624;10.106;2023-08-20T05:32:17;62.97;;;17.47;;
4921;SDS011;16625;53.624;10.106;2023-08-20T05:34:44;81.67;;;16.27;;
4921;SDS011;16625;53.624;10.106;2023-08-20T05:37:11;58.33;;;14.87;;
4921;SDS011;16625;53.624;10.106;2023-08-20T05:39:40;54.67;;;16.13;;
4921;SDS011;16625;53.624;10.106;2023-08-20T05:42:08;138.87;;;19.53;;
4921;SDS011;16625;53.624;10.106;2023-08-20T05:44:38;60.77;;;15.70;;
4921;SDS011;16625;53.624;10.106;2023-08-20T05:47:07;31.90;;;15.83;;
4921;SDS011;16625;53.624;10.106;2023-08-20T05:49:34;25.47;;;15.10;;
4921;SDS011;16625;53.624;10.106;2023-08-20T05:52:02;26.57;;;16.07;;
4921;SDS011;16625;53.624;10.106;2023-08-20T05:54:30;75.87;;;16.40;;
4921;SDS011;16625;53.624;10.106;2023-08-20T05:56:58;58.00;;;15.60;;
4921;SDS011;16625;53.624;10.106;2023-08-20T05:59:26;46.43;;;16.50;;
4921;SDS011;16625;53.624;10.106;2023-08-20T06:01:53;51.37;;;17.70;;
4921;SDS011;16625;53.624;10.106;2023-08-20T06:04:22;125.70;;;20.87;;
4921;SDS011;16625;53.624;10.106;2023-08-20T06:06:50;60.83;;;16.40;;
4921;SDS011;16625;53.624;10.106;2023-08-20T06:09:18;79.27;;;18.10;;
4921;SDS011;16625;53.624;10.106;2023-08-20T06:11:45;43.37;;;18.07;;
4921;SDS011;16625;53.624;10.106;2023-08-20T06:14:12;82.73;;;20.67;;
4921;SDS011;16625;53.624;10.106;2023-08-20T06:16:39;41.20;;;19.97;;
4921;SDS011;16625;53.624;10.106;2023-08-20T06:19:06;60.33;;;23.17;;
4921;SDS011;16625;53.624;10.106;2023-08-20T06:21:37;67.77;;;21.70;;
4921;SDS011;16625;53.624;10.106;2023-08-20T06:24:05;48.97;;;22.50;;
4921;SDS011;16625;53.624;10.106;2023-08-20T06:26:32;46.37;;;24.10;;
4921;SDS011;16625;53.624;10.106;2023-08-20T06:28:59;47.40;;;24.40;;
4921;SDS011;16625;53.624;10.106;2023-08-20T06:31:26;48.47;;;25.70;;
4921;SDS011;16625;53.624;10.106;2023-08-20T06:33:53;55.60;;;27.30;;
4921;SDS011;16625;53.624;10.106;2023-08-20T06:36:20;62.07;;;26.83;;
4921;SDS011;16625;53.624;10.106;2023-08-20T06:38:48;59.47;;;28.50;;
4921;SDS011;16625;53.624;10.106;2023-08-20T06:41:15;59.67;;;28.17;;
4921;SDS011;16625;53.624;10.106;2023-08-20T06:43:42;55.00;;;29.17;;
4921;SDS011;16625;53.624;10.106;2023-08-20T06:46:09;62.20;;;30.63;;
4921;SDS011;16625;53.624;10.106;2023-08-20T06:48:36;63.90;;;30.03;;
4921;SDS011;16625;53.624;10.106;2023-08-20T06:51:07;72.33;;;27.40;;
4921;SDS011;16625;53.624;10.106;2023-08-20T06:53:36;61.60;;;28.50;;
4921;SDS011;16625;53.624;10.106;2023-08-20T06:56:05;62.10;;;31.40;;
4921;SDS011;16625;53.624;10.106;2023-08-20T06:58:33;68.77;;;31.23;;
4921;SDS011;16625;53.624;10.106;2023-08-20T07:01:00;56.77;;;30.50;;
4921;SDS011;16625;53.624;10.106;2023-08-20T07:03:33;59.07;;;31.77;;
4921;SDS011;16625;53.624;10.106;2023-08-20T07:06:00;57.10;;;28.40;;
4921;SDS011;16625;53.624;10.106;2023-08-20T07:08:27;48.57;;;23.70;;
4921;SDS011;16625;53.624;10.106;2023-08-20T07:10:54;45.57;;;24.33;;
4921;SDS011;16625;53.624;10.106;2023-08-20T07:13:23;46.70;;;24.40;;
4921;SDS011;16625;53.624;10.106;2023-08-20T07:15:50;45.80;;;22.90;;
4921;SDS011;16625;53.624;10.106;2023-08-20T07:18:17;46.07;;;25.07;;
4921;SDS011;16625;53.624;10.106;2023-08-20T07:20:44;52.87;;;26.07;;
4921;SDS011;16625;53.624;10.106;2023-08-20T07:23:11;43.43;;;24.57;;
4921;SDS011;16625;53.624;10.106;2023-08-20T07:25:39;54.93;;;23.57;;
4921;SDS011;16625;53.624;10.106;2023-08-20T07:28:07;51.47;;;22.70;;
4921;SDS011;16625;53.624;10.106;2023-08-20T07:30:36;47.27;;;21.97;;
4921;SDS011;16625;53.624;10.106;2023-08-20T07:33:04;46.30;;;22.40;;
4921;SDS011;16625;53.624;10.106;2023-08-20T07:35:32;44.30;;;21.27;;
4921;SDS011;16625;53.624;10.106;2023-08-20T07:38:00;36.03;;;19.83;;
4921;SDS011;16625;53.624;10.106;2023-08-20T07:40:28;41.77;;;21.27;;
4921;SDS011;16625;53.624;10.106;2023-08-20T07:42:55;40.93;;;20.60;;
4921;SDS011;16625;53.624;10.106;2023-08-20T07:45:22;39.90;;;20.83;;
4921;SDS011;16625;53.624;10.106;2023-08-20T07:47:51;39.20;;;21.60;;
4921;SDS011;16625;53.624;10.106;2023-08-20T07:50:18;42.57;;;22.90;;
4921;SDS011;16625;53.624;10.106;2023-08-20T07:52:45;41.03;;;21.50;;
4921;SDS011;16625;53.624;10.106;2023-08-20T07:55:12;43.40;;;23.60;;
4921;SDS011;16625;53.624;10.106;2023-08-20T07:57:38;38.03;;;22.50;;
4921;SDS011;16625;53.624;10.106;2023-08-20T08:00:06;42.70;;;23.27;;
4921;SDS011;16625;53.624;10.106;2023-08-20T08:02:34;42.93;;;21.07;;
4921;SDS011;16625;53.624;10.106;2023-08-20T08:46:37;10.93;;;3.73;;
4921;SDS011;16625;53.624;10.106;2023-08-20T08:49:21;9.13;;;3.23;;
4921;SDS011;16625;53.624;10.106;2023-08-20T08:51:56;10.17;;;3.13;;
4921;SDS011;16625;53.624;10.106;2023-08-20T08:54:26;6.10;;;3.50;;
4921;SDS011;16625;53.624;10.106;2023-08-20T08:56:54;7.03;;;3.17;;
4921;SDS011;16625;53.624;10.106;2023-08-20T08:59:22;11.23;;;3.60;;
4921;SDS011;16625;53.624;10.106;2023-08-20T09:07:05;8.33;;;3.80;;
4921;SDS011;16625;53.624;10.106;2023-08-20T09:09:48;6.40;;;2.87;;
4921;SDS011;16625;53.624;10.106;2023-08-20T09:12:15;9.23;;;4.00;;
4921;SDS011;16625;53.624;10.106;2023-08-20T09:14:50;5.93;;;3.00;;
4921;SDS011;16625;53.624;10.106;2023-08-20T09:17:19;9.57;;;4.03;;
4921;SDS011;16625;53.624;10.106;2023-08-20T09:19:48;8.17;;;3.43;;
4921;SDS011;16625;53.624;10.106;2023-08-20T09:22:15;6.70;;;3.60;;
4921;SDS011;16625;53.624;10.106;2023-08-20T09:24:43;8.80;;;4.37;;
4921;SDS011;16625;53.624;10.106;2023-08-20T09:27:12;7.90;;;3.90;;
4921;SDS011;16625;53.624;10.106;2023-08-20T09:29:46;11.20;;;3.60;;
4921;SDS011;16625;53.624;10.106;2023-08-20T09:32:14;10.03;;;3.47;;
4921;SDS011;16625;53.624;10.106;2023-08-20T09:34:41;6.37;;;3.27;;
4921;SDS011;16625;53.624;10.106;2023-08-20T09:37:11;7.87;;;3.43;;
4921;SDS011;16625;53.624;10.106;2023-08-20T09:39:40;4.55;;;2.85;;
4921;SDS011;16625;53.624;10.106;2023-08-20T09:42:08;7.30;;;3.67;;
4921;SDS011;16625;53.624;10.106;2023-08-20T09:44:38;6.00;;;2.70;;
4921;SDS011;16625;53.624;10.106;2023-08-20T09:47:06;19.60;;;3.70;;
4921;SDS011;16625;53.624;10.106;2023-08-20T09:49:36;8.20;;;3.03;;
4921;SDS011;16625;53.624;10.106;2023-08-20T09:52:05;5.33;;;2.90;;
4921;SDS011;16625;53.624;10.106;2023-08-20T09:54:45;6.93;;;3.60;;
4921;SDS011;16625;53.624;10.106;2023-08-20T09:57:23;17.27;;;3.50;;
4921;SDS011;16625;53.624;10.106;2023-08-20T09:59:55;8.68;;;3.13;;
4921;SDS011;16625;53.624;10.106;2023-08-20T10:02:23;6.00;;;3.00;;
4921;SDS011;16625;53.624;10.106;2023-08-20T10:04:51;11.35;;;3.30;;
4921;SDS011;16625;53.624;10.106;2023-08-20T10:07:19;10.70;;;3.20;;
4921;SDS011;16625;53.624;10.106;2023-08-20T10:09:48;6.93;;;2.97;;
4921;SDS011;16625;53.624;10.106;2023-08-20T10:12:17;8.10;;;4.60;;
4921;SDS011;16625;53.624;10.106;2023-08-20T10:14:45;13.40;;;3.10;;
4921;SDS011;16625;53.624;10.106;2023-08-20T10:17:12;7.15;;;3.45;;
4921;SDS011;16625;53.624;10.106;2023-08-20T10:19:40;10.43;;;3.87;;
4921;SDS011;16625;53.624;10.106;2023-08-20T10:22:07;8.57;;;4.07;;
4921;SDS011;16625;53.624;10.106;2023-08-20T10:24:41;15.83;;;3.80;;
4921;SDS011;16625;53.624;10.106;2023-08-20T10:27:23;10.13;;;3.60;;
4921;SDS011;16625;53.624;10.106;2023-08-20T10:29:52;6.93;;;4.25;;
4921;SDS011;16625;53.624;10.106;2023-08-20T10:32:19;8.88;;;3.47;;
4921;SDS011;16625;53.624;10.106;2023-08-20T10:34:50;5.45;;;2.92;;
4921;SDS011;16625;53.624;10.106;2023-08-20T10:37:25;12.88;;;3.75;;
4921;SDS011;16625;53.624;10.106;2023-08-20T10:39:55;6.15;;;2.80;;
4921;SDS011;16625;53.624;10.106;2023-08-20T10:42:26;9.77;;;3.80;;
4921;SDS011;16625;53.624;10.106;2023-08-20T10:44:58;7.63;;;3.83;;
4921;SDS011;16625;53.624;10.106;2023-08-20T10:47:25;10.60;;;3.70;;
4921;SDS011;16625;53.624;10.106;2023-08-20T10:50:00;8.15;;;3.30;;
4921;SDS011;16625;53.624;10.106;2023-08-20T10:52:28;10.95;;;3.22;;
4921;SDS011;16625;53.624;10.106;2023-08-20T10:54:55;6.95;;;2.95;;
4921;SDS011;16625;53.624;10.106;2023-08-20T10:57:22;5.65;;;3.08;;
4921;SDS011;16625;53.624;10.106;2023-08-20T11:00:02;5.57;;;2.80;;
4921;SDS011;16625;53.624;10.106;2023-08-20T11:02:36;9.73;;;3.70;;
4921;SDS011;16625;53.624;10.106;2023-08-20T11:05:03;6.97;;;3.17;;
4921;SDS011;16625;53.624;10.106;2023-08-20T11:07:42;7.75;;;2.70;;
4921;SDS011;16625;53.624;10.106;2023-08-20T11:10:11;7.90;;;3.15;;
4921;SDS011;16625;53.624;10.106;2023-08-20T11:12:41;7.32;;;3.03;;
4921;SDS011;16625;53.624;10.106;2023-08-20T11:15:09;7.35;;;2.50;;
4921;SDS011;16625;53.624;10.106;2023-08-20T11:17:41;11.57;;;3.20;;
4921;SDS011;16625;53.624;10.106;2023-08-20T11:20:16;7.80;;;2.70;;
4921;SDS011;16625;53.624;10.106;2023-08-20T11:22:43;13.98;;;3.30;;
4921;SDS011;16625;53.624;10.106;2023-08-20T11:25:11;11.57;;;3.38;;
4921;SDS011;16625;53.624;10.106;2023-08-20T11:27:44;12.00;;;3.35;;
4921;SDS011;16625;53.624;10.106;2023-08-20T11:30:11;10.98;;;3.35;;
4921;SDS011;16625;53.624;10.106;2023-08-20T11:32:38;8.98;;;2.63;;
4921;SDS011;16625;53.624;10.106;2023-08-20T11:35:05;9.95;;;3.28;;
4921;SDS011;16625;53.624;10.106;2023-08-20T11:37:33;12.10;;;3.10;;
4921;SDS011;16625;53.624;10.106;2023-08-20T11:40:00;10.77;;;3.63;;
4921;SDS011;16625;53.624;10.106;2023-08-20T11:42:27;9.07;;;3.03;;
4921;SDS011;16625;53.624;10.106;2023-08-20T11:44:56;6.78;;;3.10;;
4921;SDS011;16625;53.624;10.106;2023-08-20T11:47:23;7.13;;;3.30;;
4921;SDS011;16625;53.624;10.106;2023-08-20T11:50:01;5.68;;;2.83;;
4921;SDS011;16625;53.624;10.106;2023-08-20T11:52:31;13.43;;;3.10;;
4921;SDS011;16625;53.624;10.106;2023-08-20T11:54:58;4.15;;;2.42;;
4921;SDS011;16625;53.624;10.106;2023-08-20T11:57:26;9.52;;;3.20;;
4921;SDS011;16625;53.624;10.106;2023-08-20T11:59:58;7.03;;;3.10;;
4921;SDS011;16625;53.624;10.106;2023-08-20T12:02:33;14.93;;;2.90;;
4921;SDS011;16625;53.624;10.106;2023-08-20T12:05:00;10.27;;;2.95;;
4921;SDS011;16625;53.624;10.106;2023-08-20T12:07:28;11.05;;;2.72;;
4921;SDS011;16625;53.624;10.106;2023-08-20T12:09:55;13.77;;;3.38;;
4921;SDS011;16625;53.624;10.106;2023-08-20T12:12:23;11.50;;;2.83;;
4921;SDS011;16625;53.624;10.106;2023-08-20T12:14:49;9.48;;;3.05;;
4921;SDS011;16625;53.624;10.106;2023-08-20T12:17:18;12.52;;;3.42;;
4921;SDS011;16625;53.624;10.106;2023-08-20T12:19:46;7.55;;;2.80;;
4921;SDS011;16625;53.624;10.106;2023-08-20T12:22:13;4.43;;;2.83;;
4921;SDS011;16625;53.624;10.106;2023-08-20T12:24:39;5.68;;;2.60;;
4921;SDS011;16625;53.624;10.106;2023-08-20T12:27:07;6.95;;;3.22;;
4921;SDS011;16625;53.624;10.106;2023-08-20T12:29:34;19.27;;;2.72;;
4921;SDS011;16625;53.624;10.106;2023-08-20T12:32:01;11.02;;;2.78;;
4921;SDS011;16625;53.624;10.106;2023-08-20T12:34:33;6.63;;;3.08;;
4921;SDS011;16625;53.624;10.106;2023-08-20T12:37:00;5.00;;;2.58;;
4921;SDS011;16625;53.624;10.106;2023-08-20T12:39:27;6.30;;;2.63;;
4921;SDS011;16625;53.624;10.106;2023-08-20T12:41:54;8.50;;;3.42;;
4921;SDS011;16625;53.624;10.106;2023-08-20T12:44:21;17.83;;;3.55;;
4921;SDS011;16625;53.624;10.106;2023-08-20T12:46:48;5.40;;;2.60;;
4921;SDS011;16625;53.624;10.106;2023-08-20T12:49:16;7.32;;;2.95;;
4921;SDS011;16625;53.624;10.106;2023-08-20T12:51:44;4.82;;;2.60;;
4921;SDS011;16625;53.624;10.106;2023-08-20T12:54:11;6.90;;;3.00;;
4921;SDS011;16625;53.624;10.106;2023-08-20T12:56:38;6.43;;;2.50;;
4921;SDS011;16625;53.624;10.106;2023-08-20T12:59:05;5.25;;;2.50;;
4921;SDS011;16625;53.624;10.106;2023-08-20T13:01:32;7.40;;;3.17;;
4921;SDS011;16625;53.624;10.106;2023-08-20T13:03:59;5.28;;;2.92;;
4921;SDS011;16625;53.624;10.106;2023-08-20T13:06:26;6.40;;;3.10;;
4921;SDS011;16625;53.624;10.106;2023-08-20T13:08:55;10.65;;;3.40;;
4921;SDS011;16625;53.624;10.106;2023-08-20T13:11:23;6.32;;;3.28;;
4921;SDS011;16625;53.624;10.106;2023-08-20T13:13:55;6.97;;;2.45;;
4921;SDS011;16625;53.624;10.106;2023-08-20T13:16:23;5.65;;;2.70;;
4921;SDS011;16625;53.624;10.106;2023-08-20T13:18:51;3.72;;;2.58;;
4921;SDS011;16625;53.624;10.106;2023-08-20T13:21:18;9.65;;;2.97;;
4921;SDS011;16625;53.624;10.106;2023-08-20T13:23:46;5.50;;;2.80;;
4921;SDS011;16625;53.624;10.106;2023-08-20T13:26:14;6.00;;;3.10;;
4921;SDS011;16625;53.624;10.106;2023-08-20T13:28:43;10.75;;;3.67;;
4921;SDS011;16625;53.624;10.106;2023-08-20T13:31:10;7.05;;;3.38;;
4921;SDS011;16625;53.624;10.106;2023-08-20T13:33:36;3.90;;;2.72;;
4921;SDS011;16625;53.624;10.106;2023-08-20T13:36:04;7.32;;;2.60;;
4921;SDS011;16625;53.624;10.106;2023-08-20T13:38:32;3.78;;;2.50;;
4921;SDS011;16625;53.624;10.106;2023-08-20T13:40:59;4.55;;;2.60;;
4921;SDS011;16625;53.624;10.106;2023-08-20T13:43:27;3.97;;;2.15;;
4921;SDS011;16625;53.624;10.106;2023-08-20T13:45:54;5.43;;;2.35;;
4921;SDS011;16625;53.624;10.106;2023-08-20T13:48:21;6.65;;;2.63;;
4921;SDS011;16625;53.624;10.106;2023-08-20T13:50:48;7.07;;;3.03;;
4921;SDS011;16625;53.624;10.106;2023-08-20T13:53:15;9.07;;;2.30;;
4921;SDS011;16625;53.624;10.106;2023-08-20T13:55:42;8.35;;;2.42;;
4921;SDS011;16625;53.624;10.106;2023-08-20T13:58:08;8.65;;;2.95;;
4921;SDS011;16625;53.624;10.106;2023-08-20T14:00:37;4.97;;;2.80;;
4921;SDS011;16625;53.624;10.106;2023-08-20T14:03:04;7.45;;;2.67;;
4921;SDS011;16625;53.624;10.106;2023-08-20T14:05:31;6.85;;;2.83;;
4921;SDS011;16625;53.624;10.106;2023-08-20T14:07:58;7.97;;;2.75;;
4921;SDS011;16625;53.624;10.106;2023-08-20T14:10:25;6.88;;;2.70;;
4921;SDS011;16625;53.624;10.106;2023-08-20T14:12:52;6.00;;;2.63;;
4921;SDS011;16625;53.624;10.106;2023-08-20T14:15:18;9.52;;;2.88;;
4921;SDS011;16625;53.624;10.106;2023-08-20T14:17:47;12.25;;;4.60;;
4921;SDS011;16625;53.624;10.106;2023-08-20T14:20:14;5.85;;;2.67;;
4921;SDS011;16625;53.624;10.106;2023-08-20T14:22:40;6.85;;;2.53;;
4921;SDS011;16625;53.624;10.106;2023-08-20T14:25:07;6.30;;;2.30;;
4921;SDS011;16625;53.624;10.106;2023-08-20T14:27:34;6.45;;;3.15;;
4921;SDS011;16625;53.624;10.106;2023-08-20T14:30:01;6.50;;;3.00;;
4921;SDS011;16625;53.624;10.106;2023-08-20T14:32:29;5.68;;;3.15;;
4921;SDS011;16625;53.624;10.106;2023-08-20T14:34:58;6.30;;;2.95;;
4921;SDS011;16625;53.624;10.106;2023-08-20T14:37:25;7.30;;;2.70;;
4921;SDS011;16625;53.624;10.106;2023-08-20T14:39:52;7.43;;;2.58;;
4921;SDS011;16625;53.624;10.106;2023-08-20T14:42:19;6.47;;;2.75;;
4921;SDS011;16625;53.624;10.106;2023-08-20T14:44:45;9.00;;;2.53;;
4921;SDS011;16625;53.624;10.106;2023-08-20T14:47:13;4.18;;;2.30;;
4921;SDS011;16625;53.624;10.106;2023-08-20T14:49:40;4.47;;;2.15;;
4921;SDS011;16625;53.624;10.106;2023-08-20T14:52:08;6.13;;;2.95;;
4921;SDS011;16625;53.624;10.106;2023-08-20T14:54:35;4.47;;;2.90;;
4921;SDS011;16625;53.624;10.106;2023-08-20T14:57:01;5.00;;;2.47;;
4921;SDS011;16625;53.624;10.106;2023-08-20T14:59:28;6.18;;;2.75;;
4921;SDS011;16625;53.624;10.106;2023-08-20T15:01:56;7.18;;;2.67;;
4921;SDS011;16625;53.624;10.106;2023-08-20T15:04:23;5.57;;;2.42;;
4921;SDS011;16625;53.624;10.106;2023-08-20T15:06:50;8.07;;;2.75;;
4921;SDS011;16625;53.624;10.106;2023-08-20T15:09:19;4.88;;;2.20;;
4921;SDS011;16625;53.624;10.106;2023-08-20T15:11:45;7.93;;;2.67;;
4921;SDS011;16625;53.624;10.106;2023-08-20T15:14:12;6.82;;;2.67;;
4921;SDS011;16625;53.624;10.106;2023-08-20T15:16:40;4.53;;;2.05;;
4921;SDS011;16625;53.624;10.106;2023-08-20T15:19:07;4.72;;;2.60;;
4921;SDS011;16625;53.624;10.106;2023-08-20T15:21:34;9.05;;;2.90;;
4921;SDS011;16625;53.624;10.106;2023-08-20T15:24:01;8.13;;;3.22;;
4921;SDS011;16625;53.624;10.106;2023-08-20T15:26:31;7.03;;;3.28;;
4921;SDS011;16625;53.624;10.106;2023-08-20T15:28:58;4.97;;;2.33;;